SILO ALERT LOG
| Silo ID | Alert Type | Alert Message | Silo Type | Points | Depth (mm) | Strength | Temperature (°C) | Humidity (%) | Height (mm) | Volume (㎥) | Weight (t) | Flag | Time |
|---|---|---|---|---|---|---|---|---|---|---|---|---|---|
| DJSSD11 | Humidity | 습도센서 측정값이 80% 초과 | 호퍼 | 441 | 7374 | 146 | 6.1 | 83.2 | 3855 | 29.236 | 15.934 | 0 | 2024-01-03 15:39:31.000 |
| DJHNR12 | Humidity | 습도센서 측정값이 80% 초과 | 호퍼 | 451 | 7322 | 263 | 5.3 | 82.7 | 3057 | 12.025 | 7.602 | 0 | 2024-01-03 15:39:30.000 |
| DJSAD18 | Humidity | 습도센서 측정값이 80% 초과 | 평 | 119 | 1428 | 5688 | 6.9 | 80.8 | 6151 | 612.55 | 387.254 | 11 | 2024-01-03 15:39:30.000 |
| DJHNR03 | Temperature | 온도센서 상태 이상 | 호퍼 | 0 | 15500 | 0 | -999 | -999 | -119 | 0 | 0 | 31 | 2024-01-03 15:39:24.000 |
| DJSSD12 | Temperature | 온도센서 상태 이상 | 호퍼 | 0 | 11350 | 0 | -999 | -999 | -120 | 0 | 0 | 31 | 2024-01-03 15:39:24.000 |
| DJHNR14 | Humidity | 습도센서 측정값이 80% 초과 | 호퍼 | 0 | 10500 | 85 | 5 | 99.9 | -120 | 0 | 0 | 31 | 2024-01-03 15:39:21.000 |
| DJSAD05 | Humidity | 습도센서 측정값이 80% 초과 | 평 | 472 | 1576 | 8981 | 4.4 | 81.7 | 7203 | 298.215 | 188.531 | 0 | 2024-01-03 14:39:40.000 |
| DJSAD01 | Humidity | 습도센서 측정값이 80% 초과 | 평 | 415 | 1466 | 7407 | 3.5 | 88.8 | 7313 | 302.739 | 191.391 | 0 | 2024-01-03 14:39:39.000 |
| DJSAD02 | Humidity | 습도센서 측정값이 80% 초과 | 평 | 387 | 1135 | 4373 | 4.1 | 87.7 | 7644 | 316.474 | 200.075 | 11 | 2024-01-03 14:39:39.000 |
| DJSAD03 | Humidity | 습도센서 측정값이 80% 초과 | 평 | 447 | 1671 | 6195 | 5.1 | 84.5 | 7108 | 294.269 | 186.037 | 0 | 2024-01-03 14:39:39.000 |
| DJSSD05 | Temperature | 온도센서 측정값이 0도 미만 | 평 | 833 | 2554 | 4877 | -45.4 | 43.7 | 5525 | 769.065 | 486.203 | 0 | 2024-01-03 14:39:33.000 |
| DJSAD12 | Humidity | 습도센서 측정값이 80% 초과 | 평 | 0 | 7700 | 0 | 4.8 | 85.9 | -120 | -17.075 | 0 | 31 | 2024-01-03 14:39:33.000 |
| DJHNR01 | Humidity | 습도센서 측정값이 80% 초과 | 호퍼 | 471 | 4307 | 4918 | 6.9 | 99.9 | 11072 | 472.858 | 298.941 | 13 | 2024-01-03 14:39:33.000 |
| DJSSD04 | Temperature | 온도센서 상태 이상 | 평 | 0 | 8200 | 0 | -999 | -999 | -120 | -16.702 | 0 | 31 | 2024-01-03 14:39:33.000 |
| DJSSD09 | Temperature | 온도센서 측정값이 0도 미만 | 평 | 108 | 2988 | 2602 | -45.4 | 0 | 4691 | 652.969 | 412.807 | 11 | 2024-01-03 14:39:32.000 |
| DJSAD08 | Humidity | 습도센서 측정값이 80% 초과 | 평 | 596 | 2542 | 4953 | 8.8 | 83.1 | 5037 | 716.834 | 453.182 | 12 | 2024-01-03 14:39:32.000 |
| DJSAD07 | Humidity | 습도센서 측정값이 80% 초과 | 평 | 663 | 2542 | 2679 | 6.1 | 85.9 | 5037 | 716.806 | 453.165 | 0 | 2024-01-03 14:39:32.000 |
| DJSSD01 | Humidity | 습도센서 측정값이 80% 초과 | 평 | 798 | 2567 | 4644 | 7.2 | 82.6 | 5512 | 767.236 | 485.046 | 0 | 2024-01-03 14:39:32.000 |
| DJHNR06 | Humidity | 습도센서 측정값이 80% 초과 | 평 | 468 | 2705 | 2749 | 5.4 | 81.4 | 4974 | 707.835 | 447.493 | 0 | 2024-01-03 14:39:32.000 |
| DJSSD11 | Humidity | 습도센서 측정값이 80% 초과 | 호퍼 | 444 | 7371 | 145 | 5.3 | 85.6 | 3858 | 29.288 | 15.962 | 0 | 2024-01-03 14:39:31.000 |
[첫 페이지] [10203] [10204] [10205] [10206] 10207 [10208] [10209] [10210] [10211] [마지막 페이지]